Verndale, MN

5:19 AM CDT on June 28, 2017 (GMT -0500)
MMN063 | | Change Station

Elev 1348 ft 46.41 °N, 95.05 °W | Updated 41 days ago

Light Rain
Light Rain
54.0 °F
Feels Like 54.0 °F
N
14.0
Wind Variable Wind from NNE
Gusts 22.0 mph

Today
High -- | Low -- °F
--% Chance of Precip.
Yesterday
High -- | Low -- °F
Precip. -- in
Pressure 29.62 in
Visibility 5.0 miles
Clouds Mostly Cloudy 2100 ft
Overcast 11000 ft
Dew Point 52.0 °F
Humidity 90%
Rainfall in
Snow Depth Not available.
5:30 AM 9:16 PM
Waxing Crescent, 24% visible
METAR KSAZ 281013Z AUTO 00000KT 5SM -RA BKN021 OVC110 14/12 A2962 RMK AO2 P0002 LTG DSNT SW
Pressure 29.62 in
Visibility 5.0 miles
Clouds Mostly Cloudy 2100 ft
Overcast 11000 ft
Dew Point 52.0 °F
Humidity 90%
Rainfall in
Snow Depth Not available.
5:30 AM 9:16 PM
Waxing Crescent, 24% visible
METAR KSAZ 281013Z AUTO 00000KT 5SM -RA BKN021 OVC110 14/12 A2962 RMK AO2 P0002 LTG DSNT SW

Get Severe Weather Alerts

Thanks for signing up!

Be on the lookout for a verification email in your inbox.

You'll start receiving the daily forecast at 6 AM.

×

10-Day Weather Forecast

Almanac

Astronomy

Jun. 28, 2017 Rise Set
Actual Time
Civil Twilight
Nautical Twilight
Astronomical Twilight
Moon
Length of Visible Light
Length of Day
Tomorrow will be .
, % of the Moon is Illuminated

Today's Extremes

State Highs State Lows

Community

WunderPhotos

Category 6

Welcome to Category 6. This is the collective home for Weather Underground's featured writeups by Dr. Jeff Masters (right), Bob Henson (left), Chris Burt, and other regular contributors.

Nearby

Air Quality

  Air Quality AQ Index Pollutant
Not available.

Snow Depth

Station Depth Elevation

Earthquake Activity

City Distance Mag. Time & Date
Minimum magnitude displayed is 2.5.

Coastal Water Temperatures

Place Temperature

Stations

Nearby Weather Stations

Station Location Temp. Windchill Dew Point Humidity Wind Precip. Elev Updated Type
                   

Watches & Warnings

There are currently no watches in effect.